sensor_id;sensor_type;location;lat;lon;timestamp;P1;durP1;ratioP1;P2;durP2;ratioP2
15202;SDS011;7702;51.046;5.184;2023-06-10T00:01:58;10.13;;;9.33;;
15202;SDS011;7702;51.046;5.184;2023-06-10T00:04:24;9.87;;;9.07;;
15202;SDS011;7702;51.046;5.184;2023-06-10T00:06:51;13.10;;;9.80;;
15202;SDS011;7702;51.046;5.184;2023-06-10T00:09:16;9.83;;;9.03;;
15202;SDS011;7702;51.046;5.184;2023-06-10T00:11:43;10.80;;;9.80;;
15202;SDS011;7702;51.046;5.184;2023-06-10T00:14:09;10.87;;;9.97;;
15202;SDS011;7702;51.046;5.184;2023-06-10T00:16:35;10.87;;;9.27;;
15202;SDS011;7702;51.046;5.184;2023-06-10T00:19:02;9.83;;;9.00;;
15202;SDS011;7702;51.046;5.184;2023-06-10T00:21:29;10.80;;;9.37;;
15202;SDS011;7702;51.046;5.184;2023-06-10T00:23:55;10.53;;;9.60;;
15202;SDS011;7702;51.046;5.184;2023-06-10T00:26:22;9.77;;;8.87;;
15202;SDS011;7702;51.046;5.184;2023-06-10T00:28:48;10.60;;;9.80;;
15202;SDS011;7702;51.046;5.184;2023-06-10T00:31:14;10.10;;;9.23;;
15202;SDS011;7702;51.046;5.184;2023-06-10T00:33:40;11.27;;;10.37;;
15202;SDS011;7702;51.046;5.184;2023-06-10T00:36:06;11.07;;;9.90;;
15202;SDS011;7702;51.046;5.184;2023-06-10T00:38:31;10.67;;;9.77;;
15202;SDS011;7702;51.046;5.184;2023-06-10T00:40:58;10.60;;;9.30;;
15202;SDS011;7702;51.046;5.184;2023-06-10T00:43:24;10.10;;;9.20;;
15202;SDS011;7702;51.046;5.184;2023-06-10T00:45:49;10.10;;;9.30;;
15202;SDS011;7702;51.046;5.184;2023-06-10T00:48:16;11.00;;;10.10;;
15202;SDS011;7702;51.046;5.184;2023-06-10T00:50:43;11.03;;;10.07;;
15202;SDS011;7702;51.046;5.184;2023-06-10T00:53:09;10.70;;;9.80;;
15202;SDS011;7702;51.046;5.184;2023-06-10T00:55:35;11.50;;;10.40;;
15202;SDS011;7702;51.046;5.184;2023-06-10T00:58:02;10.93;;;10.03;;
15202;SDS011;7702;51.046;5.184;2023-06-10T01:00:29;10.90;;;9.90;;
15202;SDS011;7702;51.046;5.184;2023-06-10T01:02:54;11.67;;;10.47;;
15202;SDS011;7702;51.046;5.184;2023-06-10T01:05:20;11.43;;;10.43;;
15202;SDS011;7702;51.046;5.184;2023-06-10T01:10:32;11.87;;;10.37;;
15202;SDS011;7702;51.046;5.184;2023-06-10T01:12:59;11.20;;;10.10;;
15202;SDS011;7702;51.046;5.184;2023-06-10T01:15:32;11.43;;;10.50;;
15202;SDS011;7702;51.046;5.184;2023-06-10T01:18:02;12.17;;;10.97;;
15202;SDS011;7702;51.046;5.184;2023-06-10T01:20:30;12.27;;;10.67;;
15202;SDS011;7702;51.046;5.184;2023-06-10T01:22:59;11.77;;;10.60;;
15202;SDS011;7702;51.046;5.184;2023-06-10T01:25:26;11.70;;;10.60;;
15202;SDS011;7702;51.046;5.184;2023-06-10T01:28:04;11.60;;;10.50;;
15202;SDS011;7702;51.046;5.184;2023-06-10T01:33:18;11.70;;;10.77;;
15202;SDS011;7702;51.046;5.184;2023-06-10T01:35:50;11.37;;;10.10;;
15202;SDS011;7702;51.046;5.184;2023-06-10T01:38:17;10.87;;;9.97;;
15202;SDS011;7702;51.046;5.184;2023-06-10T01:40:45;10.93;;;10.03;;
15202;SDS011;7702;51.046;5.184;2023-06-10T01:43:13;12.23;;;11.00;;
15202;SDS011;7702;51.046;5.184;2023-06-10T01:45:38;11.97;;;10.97;;
15202;SDS011;7702;51.046;5.184;2023-06-10T01:48:04;11.73;;;10.73;;
15202;SDS011;7702;51.046;5.184;2023-06-10T01:50:30;11.80;;;10.73;;
15202;SDS011;7702;51.046;5.184;2023-06-10T01:52:57;11.97;;;10.77;;
15202;SDS011;7702;51.046;5.184;2023-06-10T01:55:24;11.50;;;10.33;;
15202;SDS011;7702;51.046;5.184;2023-06-10T01:57:50;12.07;;;11.07;;
15202;SDS011;7702;51.046;5.184;2023-06-10T02:00:16;12.30;;;11.27;;
15202;SDS011;7702;51.046;5.184;2023-06-10T02:02:42;12.53;;;11.33;;
15202;SDS011;7702;51.046;5.184;2023-06-10T02:05:08;11.97;;;10.93;;
15202;SDS011;7702;51.046;5.184;2023-06-10T02:07:34;12.50;;;11.50;;
15202;SDS011;7702;51.046;5.184;2023-06-10T02:09:59;12.07;;;11.07;;
15202;SDS011;7702;51.046;5.184;2023-06-10T02:12:25;11.83;;;10.73;;
15202;SDS011;7702;51.046;5.184;2023-06-10T02:14:51;11.97;;;10.73;;
15202;SDS011;7702;51.046;5.184;2023-06-10T02:17:16;12.90;;;11.90;;
15202;SDS011;7702;51.046;5.184;2023-06-10T02:19:43;11.27;;;10.37;;
15202;SDS011;7702;51.046;5.184;2023-06-10T02:22:09;12.53;;;11.47;;
15202;SDS011;7702;51.046;5.184;2023-06-10T02:24:37;12.87;;;11.77;;
15202;SDS011;7702;51.046;5.184;2023-06-10T02:27:04;12.00;;;10.93;;
15202;SDS011;7702;51.046;5.184;2023-06-10T02:29:33;12.23;;;11.03;;
15202;SDS011;7702;51.046;5.184;2023-06-10T02:32:00;11.80;;;10.77;;
15202;SDS011;7702;51.046;5.184;2023-06-10T02:34:27;11.80;;;10.83;;
15202;SDS011;7702;51.046;5.184;2023-06-10T02:36:53;11.70;;;10.77;;
15202;SDS011;7702;51.046;5.184;2023-06-10T02:39:19;12.37;;;11.17;;
15202;SDS011;7702;51.046;5.184;2023-06-10T02:41:46;12.60;;;11.60;;
15202;SDS011;7702;51.046;5.184;2023-06-10T02:44:12;12.70;;;11.70;;
15202;SDS011;7702;51.046;5.184;2023-06-10T02:46:37;12.47;;;11.27;;
15202;SDS011;7702;51.046;5.184;2023-06-10T02:49:03;11.73;;;10.73;;
15202;SDS011;7702;51.046;5.184;2023-06-10T02:51:28;12.83;;;11.57;;
15202;SDS011;7702;51.046;5.184;2023-06-10T02:53:54;11.60;;;10.60;;
15202;SDS011;7702;51.046;5.184;2023-06-10T02:56:20;12.03;;;11.10;;
15202;SDS011;7702;51.046;5.184;2023-06-10T02:58:47;12.07;;;10.97;;
15202;SDS011;7702;51.046;5.184;2023-06-10T03:01:13;12.00;;;11.10;;
15202;SDS011;7702;51.046;5.184;2023-06-10T03:03:39;12.33;;;11.23;;
15202;SDS011;7702;51.046;5.184;2023-06-10T03:06:07;12.17;;;11.17;;
15202;SDS011;7702;51.046;5.184;2023-06-10T03:08:35;12.10;;;11.13;;
15202;SDS011;7702;51.046;5.184;2023-06-10T03:11:02;11.93;;;10.90;;
15202;SDS011;7702;51.046;5.184;2023-06-10T03:13:27;12.23;;;11.23;;
15202;SDS011;7702;51.046;5.184;2023-06-10T03:15:53;13.03;;;12.00;;
15202;SDS011;7702;51.046;5.184;2023-06-10T03:18:18;12.30;;;11.37;;
15202;SDS011;7702;51.046;5.184;2023-06-10T03:20:45;12.70;;;11.70;;
15202;SDS011;7702;51.046;5.184;2023-06-10T03:23:11;12.77;;;11.70;;
15202;SDS011;7702;51.046;5.184;2023-06-10T03:25:36;13.27;;;11.93;;
15202;SDS011;7702;51.046;5.184;2023-06-10T03:28:02;12.80;;;11.63;;
15202;SDS011;7702;51.046;5.184;2023-06-10T03:30:28;13.10;;;12.00;;
15202;SDS011;7702;51.046;5.184;2023-06-10T03:32:54;13.00;;;12.00;;
15202;SDS011;7702;51.046;5.184;2023-06-10T03:35:19;13.13;;;11.73;;
15202;SDS011;7702;51.046;5.184;2023-06-10T03:37:46;13.57;;;12.37;;
15202;SDS011;7702;51.046;5.184;2023-06-10T03:40:11;13.93;;;12.63;;
15202;SDS011;7702;51.046;5.184;2023-06-10T03:42:37;12.03;;;11.03;;
15202;SDS011;7702;51.046;5.184;2023-06-10T03:45:03;13.10;;;12.00;;
15202;SDS011;7702;51.046;5.184;2023-06-10T03:47:35;13.37;;;12.27;;
15202;SDS011;7702;51.046;5.184;2023-06-10T03:50:02;13.37;;;12.27;;
15202;SDS011;7702;51.046;5.184;2023-06-10T03:52:29;13.53;;;12.43;;
15202;SDS011;7702;51.046;5.184;2023-06-10T03:54:55;14.60;;;13.00;;
15202;SDS011;7702;51.046;5.184;2023-06-10T03:57:20;14.50;;;13.20;;
15202;SDS011;7702;51.046;5.184;2023-06-10T03:59:46;14.37;;;13.27;;
15202;SDS011;7702;51.046;5.184;2023-06-10T04:02:12;14.80;;;13.27;;
15202;SDS011;7702;51.046;5.184;2023-06-10T04:04:38;14.27;;;13.07;;
15202;SDS011;7702;51.046;5.184;2023-06-10T04:07:04;14.90;;;13.60;;
15202;SDS011;7702;51.046;5.184;2023-06-10T04:09:30;15.00;;;13.70;;
15202;SDS011;7702;51.046;5.184;2023-06-10T04:11:56;14.27;;;13.10;;
15202;SDS011;7702;51.046;5.184;2023-06-10T04:14:22;14.70;;;13.27;;
15202;SDS011;7702;51.046;5.184;2023-06-10T04:16:48;14.93;;;13.73;;
15202;SDS011;7702;51.046;5.184;2023-06-10T04:19:15;14.30;;;12.93;;
15202;SDS011;7702;51.046;5.184;2023-06-10T04:21:41;14.77;;;13.27;;
15202;SDS011;7702;51.046;5.184;2023-06-10T04:24:07;14.30;;;13.00;;
15202;SDS011;7702;51.046;5.184;2023-06-10T04:26:34;14.13;;;12.73;;
15202;SDS011;7702;51.046;5.184;2023-06-10T04:29:01;14.57;;;13.37;;
15202;SDS011;7702;51.046;5.184;2023-06-10T04:31:26;13.53;;;12.33;;
15202;SDS011;7702;51.046;5.184;2023-06-10T04:33:52;13.27;;;12.07;;
15202;SDS011;7702;51.046;5.184;2023-06-10T04:36:18;13.83;;;12.60;;
15202;SDS011;7702;51.046;5.184;2023-06-10T04:38:44;13.80;;;12.53;;
15202;SDS011;7702;51.046;5.184;2023-06-10T04:41:10;13.27;;;12.17;;
15202;SDS011;7702;51.046;5.184;2023-06-10T04:43:36;13.50;;;12.20;;
15202;SDS011;7702;51.046;5.184;2023-06-10T04:46:02;13.50;;;12.30;;
15202;SDS011;7702;51.046;5.184;2023-06-10T04:48:27;13.13;;;12.03;;
15202;SDS011;7702;51.046;5.184;2023-06-10T04:50:53;13.43;;;12.30;;
15202;SDS011;7702;51.046;5.184;2023-06-10T04:53:19;13.10;;;11.90;;
15202;SDS011;7702;51.046;5.184;2023-06-10T04:55:45;13.10;;;11.93;;
15202;SDS011;7702;51.046;5.184;2023-06-10T04:58:12;12.60;;;11.40;;
15202;SDS011;7702;51.046;5.184;2023-06-10T05:00:37;11.93;;;10.93;;
15202;SDS011;7702;51.046;5.184;2023-06-10T05:03:03;13.07;;;11.80;;
15202;SDS011;7702;51.046;5.184;2023-06-10T05:05:29;13.63;;;12.30;;
15202;SDS011;7702;51.046;5.184;2023-06-10T05:07:54;12.90;;;11.70;;
15202;SDS011;7702;51.046;5.184;2023-06-10T05:10:20;13.27;;;12.03;;
15202;SDS011;7702;51.046;5.184;2023-06-10T05:12:46;12.80;;;11.80;;
15202;SDS011;7702;51.046;5.184;2023-06-10T05:15:11;12.13;;;10.93;;
15202;SDS011;7702;51.046;5.184;2023-06-10T05:17:37;12.73;;;11.63;;
15202;SDS011;7702;51.046;5.184;2023-06-10T05:20:03;12.80;;;11.60;;
15202;SDS011;7702;51.046;5.184;2023-06-10T05:22:29;12.23;;;11.10;;
15202;SDS011;7702;51.046;5.184;2023-06-10T05:24:55;12.10;;;11.00;;
15202;SDS011;7702;51.046;5.184;2023-06-10T05:27:21;12.00;;;11.00;;
15202;SDS011;7702;51.046;5.184;2023-06-10T05:29:47;11.80;;;10.67;;
15202;SDS011;7702;51.046;5.184;2023-06-10T05:32:12;12.03;;;10.80;;
15202;SDS011;7702;51.046;5.184;2023-06-10T05:34:38;11.93;;;10.80;;
15202;SDS011;7702;51.046;5.184;2023-06-10T05:37:04;12.30;;;11.27;;
15202;SDS011;7702;51.046;5.184;2023-06-10T05:39:31;11.87;;;10.93;;
15202;SDS011;7702;51.046;5.184;2023-06-10T05:41:57;11.93;;;10.73;;
15202;SDS011;7702;51.046;5.184;2023-06-10T05:44:24;11.53;;;10.53;;
15202;SDS011;7702;51.046;5.184;2023-06-10T05:46:50;10.93;;;10.13;;
15202;SDS011;7702;51.046;5.184;2023-06-10T05:49:16;10.53;;;9.67;;
15202;SDS011;7702;51.046;5.184;2023-06-10T05:51:42;11.47;;;10.47;;
15202;SDS011;7702;51.046;5.184;2023-06-10T05:54:07;10.97;;;10.07;;
15202;SDS011;7702;51.046;5.184;2023-06-10T05:56:33;11.37;;;10.37;;
15202;SDS011;7702;51.046;5.184;2023-06-10T05:58:59;11.23;;;10.33;;
15202;SDS011;7702;51.046;5.184;2023-06-10T06:01:24;11.63;;;10.57;;
15202;SDS011;7702;51.046;5.184;2023-06-10T06:03:50;11.43;;;10.27;;
15202;SDS011;7702;51.046;5.184;2023-06-10T06:06:16;10.80;;;10.00;;
15202;SDS011;7702;51.046;5.184;2023-06-10T06:08:41;11.40;;;10.43;;
15202;SDS011;7702;51.046;5.184;2023-06-10T06:11:07;11.67;;;10.67;;
15202;SDS011;7702;51.046;5.184;2023-06-10T06:13:33;10.63;;;9.73;;
15202;SDS011;7702;51.046;5.184;2023-06-10T06:15:58;13.20;;;10.63;;
15202;SDS011;7702;51.046;5.184;2023-06-10T06:18:24;11.47;;;10.67;;
15202;SDS011;7702;51.046;5.184;2023-06-10T06:20:50;10.47;;;9.57;;
15202;SDS011;7702;51.046;5.184;2023-06-10T06:23:16;11.37;;;10.27;;
15202;SDS011;7702;51.046;5.184;2023-06-10T06:25:41;10.87;;;9.87;;
15202;SDS011;7702;51.046;5.184;2023-06-10T06:28:07;11.07;;;9.93;;
15202;SDS011;7702;51.046;5.184;2023-06-10T06:30:35;11.07;;;9.97;;
15202;SDS011;7702;51.046;5.184;2023-06-10T06:33:00;10.43;;;9.63;;
15202;SDS011;7702;51.046;5.184;2023-06-10T06:35:26;10.93;;;10.03;;
15202;SDS011;7702;51.046;5.184;2023-06-10T06:37:52;10.53;;;9.70;;
15202;SDS011;7702;51.046;5.184;2023-06-10T06:40:18;10.43;;;9.43;;
15202;SDS011;7702;51.046;5.184;2023-06-10T06:42:44;10.67;;;9.87;;
15202;SDS011;7702;51.046;5.184;2023-06-10T06:45:09;9.80;;;8.90;;
15202;SDS011;7702;51.046;5.184;2023-06-10T06:47:35;11.00;;;9.87;;
15202;SDS011;7702;51.046;5.184;2023-06-10T06:50:01;10.47;;;9.37;;
15202;SDS011;7702;51.046;5.184;2023-06-10T06:52:27;10.03;;;9.17;;
15202;SDS011;7702;51.046;5.184;2023-06-10T06:54:53;10.20;;;9.40;;
15202;SDS011;7702;51.046;5.184;2023-06-10T06:57:18;10.07;;;9.17;;
15202;SDS011;7702;51.046;5.184;2023-06-10T06:59:44;9.53;;;8.60;;
15202;SDS011;7702;51.046;5.184;2023-06-10T07:02:10;9.80;;;8.87;;
15202;SDS011;7702;51.046;5.184;2023-06-10T07:04:36;10.10;;;9.13;;
15202;SDS011;7702;51.046;5.184;2023-06-10T07:07:01;10.20;;;9.30;;
15202;SDS011;7702;51.046;5.184;2023-06-10T07:09:27;9.17;;;8.27;;
15202;SDS011;7702;51.046;5.184;2023-06-10T07:11:53;11.10;;;9.23;;
15202;SDS011;7702;51.046;5.184;2023-06-10T07:14:19;9.17;;;8.47;;
15202;SDS011;7702;51.046;5.184;2023-06-10T07:16:44;9.13;;;8.40;;
15202;SDS011;7702;51.046;5.184;2023-06-10T07:19:11;10.10;;;9.30;;
15202;SDS011;7702;51.046;5.184;2023-06-10T07:21:37;9.50;;;8.60;;
15202;SDS011;7702;51.046;5.184;2023-06-10T07:24:03;9.40;;;8.50;;
15202;SDS011;7702;51.046;5.184;2023-06-10T07:26:29;9.00;;;8.10;;
15202;SDS011;7702;51.046;5.184;2023-06-10T07:28:54;9.90;;;8.40;;
15202;SDS011;7702;51.046;5.184;2023-06-10T07:31:21;10.03;;;9.13;;
15202;SDS011;7702;51.046;5.184;2023-06-10T07:33:47;9.80;;;8.90;;
15202;SDS011;7702;51.046;5.184;2023-06-10T07:36:13;9.43;;;8.53;;
15202;SDS011;7702;51.046;5.184;2023-06-10T07:38:40;9.63;;;8.63;;
15202;SDS011;7702;51.046;5.184;2023-06-10T07:41:07;9.30;;;8.60;;
15202;SDS011;7702;51.046;5.184;2023-06-10T07:43:33;8.90;;;7.97;;
15202;SDS011;7702;51.046;5.184;2023-06-10T07:45:59;9.23;;;8.57;;
15202;SDS011;7702;51.046;5.184;2023-06-10T07:48:25;9.57;;;8.57;;
15202;SDS011;7702;51.046;5.184;2023-06-10T07:50:51;9.30;;;8.50;;
15202;SDS011;7702;51.046;5.184;2023-06-10T07:53:17;8.80;;;8.17;;
15202;SDS011;7702;51.046;5.184;2023-06-10T07:55:43;9.20;;;8.30;;
15202;SDS011;7702;51.046;5.184;2023-06-10T07:58:09;9.40;;;8.50;;
15202;SDS011;7702;51.046;5.184;2023-06-10T08:00:35;12.13;;;9.00;;
15202;SDS011;7702;51.046;5.184;2023-06-10T08:03:01;9.53;;;8.73;;
15202;SDS011;7702;51.046;5.184;2023-06-10T08:05:26;9.57;;;8.90;;
15202;SDS011;7702;51.046;5.184;2023-06-10T08:07:52;11.80;;;9.10;;
15202;SDS011;7702;51.046;5.184;2023-06-10T08:10:18;9.17;;;8.43;;
15202;SDS011;7702;51.046;5.184;2023-06-10T08:12:44;9.27;;;8.47;;
15202;SDS011;7702;51.046;5.184;2023-06-10T08:15:09;9.33;;;8.53;;
15202;SDS011;7702;51.046;5.184;2023-06-10T08:17:36;9.50;;;8.63;;
15202;SDS011;7702;51.046;5.184;2023-06-10T08:20:02;9.07;;;8.40;;
15202;SDS011;7702;51.046;5.184;2023-06-10T08:22:28;8.77;;;8.10;;
15202;SDS011;7702;51.046;5.184;2023-06-10T08:24:54;9.47;;;8.53;;
15202;SDS011;7702;51.046;5.184;2023-06-10T08:27:21;9.57;;;8.63;;
15202;SDS011;7702;51.046;5.184;2023-06-10T08:29:46;8.67;;;8.00;;
15202;SDS011;7702;51.046;5.184;2023-06-10T08:32:12;9.33;;;8.63;;
15202;SDS011;7702;51.046;5.184;2023-06-10T08:34:38;9.33;;;8.53;;
15202;SDS011;7702;51.046;5.184;2023-06-10T08:37:04;9.50;;;8.70;;
15202;SDS011;7702;51.046;5.184;2023-06-10T08:39:30;9.00;;;8.30;;
15202;SDS011;7702;51.046;5.184;2023-06-10T08:44:50;8.80;;;8.10;;
15202;SDS011;7702;51.046;5.184;2023-06-10T08:47:24;8.60;;;7.80;;
15202;SDS011;7702;51.046;5.184;2023-06-10T08:49:50;8.07;;;7.47;;
15202;SDS011;7702;51.046;5.184;2023-06-10T08:52:19;8.83;;;8.10;;
15202;SDS011;7702;51.046;5.184;2023-06-10T08:54:49;9.00;;;8.13;;
15202;SDS011;7702;51.046;5.184;2023-06-10T08:57:19;8.67;;;7.60;;
15202;SDS011;7702;51.046;5.184;2023-06-10T08:59:46;8.50;;;7.80;;
15202;SDS011;7702;51.046;5.184;2023-06-10T09:02:14;8.37;;;7.47;;
15202;SDS011;7702;51.046;5.184;2023-06-10T09:04:43;8.93;;;8.23;;
15202;SDS011;7702;51.046;5.184;2023-06-10T09:07:10;8.60;;;7.80;;
15202;SDS011;7702;51.046;5.184;2023-06-10T09:09:37;7.97;;;7.37;;
15202;SDS011;7702;51.046;5.184;2023-06-10T09:12:03;8.03;;;7.43;;
15202;SDS011;7702;51.046;5.184;2023-06-10T09:14:29;8.40;;;7.80;;
15202;SDS011;7702;51.046;5.184;2023-06-10T09:16:55;8.80;;;8.07;;
15202;SDS011;7702;51.046;5.184;2023-06-10T09:19:23;8.33;;;7.67;;
15202;SDS011;7702;51.046;5.184;2023-06-10T09:21:50;9.00;;;8.10;;
15202;SDS011;7702;51.046;5.184;2023-06-10T09:24:16;8.70;;;8.00;;
15202;SDS011;7702;51.046;5.184;2023-06-10T09:26:42;8.90;;;8.10;;
15202;SDS011;7702;51.046;5.184;2023-06-10T09:29:08;8.70;;;7.97;;
15202;SDS011;7702;51.046;5.184;2023-06-10T09:31:36;9.30;;;8.60;;
15202;SDS011;7702;51.046;5.184;2023-06-10T09:36:35;8.27;;;7.57;;
15202;SDS011;7702;51.046;5.184;2023-06-10T09:39:03;8.93;;;8.15;;
15202;SDS011;7702;51.046;5.184;2023-06-10T09:41:33;8.32;;;7.72;;
15202;SDS011;7702;51.046;5.184;2023-06-10T09:44:00;9.32;;;8.27;;
15202;SDS011;7702;51.046;5.184;2023-06-10T09:46:30;8.43;;;7.88;;
15202;SDS011;7702;51.046;5.184;2023-06-10T09:48:57;9.07;;;7.95;;
15202;SDS011;7702;51.046;5.184;2023-06-10T09:51:23;8.00;;;7.47;;
15202;SDS011;7702;51.046;5.184;2023-06-10T09:53:52;8.27;;;7.57;;
15202;SDS011;7702;51.046;5.184;2023-06-10T09:56:19;9.90;;;8.25;;
15202;SDS011;7702;51.046;5.184;2023-06-10T09:58:45;8.30;;;7.70;;
15202;SDS011;7702;51.046;5.184;2023-06-10T10:01:12;9.10;;;8.32;;
15202;SDS011;7702;51.046;5.184;2023-06-10T10:03:46;8.35;;;7.75;;
15202;SDS011;7702;51.046;5.184;2023-06-10T10:06:14;9.10;;;8.27;;
15202;SDS011;7702;51.046;5.184;2023-06-10T10:08:41;8.40;;;7.80;;
15202;SDS011;7702;51.046;5.184;2023-06-10T10:11:08;8.32;;;7.70;;
15202;SDS011;7702;51.046;5.184;2023-06-10T10:13:34;9.07;;;8.38;;
15202;SDS011;7702;51.046;5.184;2023-06-10T10:16:10;8.18;;;7.57;;
15202;SDS011;7702;51.046;5.184;2023-06-10T10:18:41;8.30;;;7.60;;
15202;SDS011;7702;51.046;5.184;2023-06-10T10:21:11;7.65;;;7.07;;
15202;SDS011;7702;51.046;5.184;2023-06-10T10:23:47;8.55;;;7.85;;
15202;SDS011;7702;51.046;5.184;2023-06-10T10:26:22;9.13;;;8.00;;
15202;SDS011;7702;51.046;5.184;2023-06-10T10:31:39;10.15;;;7.57;;
15202;SDS011;7702;51.046;5.184;2023-06-10T10:34:18;8.55;;;7.80;;
15202;SDS011;7702;51.046;5.184;2023-06-10T10:36:49;7.88;;;7.28;;
15202;SDS011;7702;51.046;5.184;2023-06-10T10:39:15;8.32;;;7.63;;
15202;SDS011;7702;51.046;5.184;2023-06-10T10:41:41;7.63;;;6.97;;
15202;SDS011;7702;51.046;5.184;2023-06-10T10:44:07;7.70;;;7.15;;
15202;SDS011;7702;51.046;5.184;2023-06-10T10:46:44;7.50;;;7.00;;
15202;SDS011;7702;51.046;5.184;2023-06-10T10:49:13;16.48;;;8.27;;
15202;SDS011;7702;51.046;5.184;2023-06-10T10:51:58;8.75;;;6.70;;
15202;SDS011;7702;51.046;5.184;2023-06-10T10:54:29;7.30;;;6.72;;
15202;SDS011;7702;51.046;5.184;2023-06-10T10:57:15;8.50;;;7.53;;
15202;SDS011;7702;51.046;5.184;2023-06-10T10:59:46;8.70;;;7.78;;
15202;SDS011;7702;51.046;5.184;2023-06-10T11:02:17;7.40;;;6.80;;
15202;SDS011;7702;51.046;5.184;2023-06-10T11:04:56;7.22;;;6.82;;
15202;SDS011;7702;51.046;5.184;2023-06-10T11:07:24;7.68;;;7.07;;
15202;SDS011;7702;51.046;5.184;2023-06-10T11:10:04;10.82;;;8.02;;
15202;SDS011;7702;51.046;5.184;2023-06-10T11:12:41;8.27;;;7.57;;
15202;SDS011;7702;51.046;5.184;2023-06-10T11:15:10;7.80;;;7.20;;
15202;SDS011;7702;51.046;5.184;2023-06-10T11:18:06;7.75;;;7.18;;
15202;SDS011;7702;51.046;5.184;2023-06-10T11:31:24;8.50;;;7.70;;
15202;SDS011;7702;51.046;5.184;2023-06-10T11:34:03;9.05;;;8.23;;
15202;SDS011;7702;51.046;5.184;2023-06-10T11:36:31;9.10;;;7.40;;
15202;SDS011;7702;51.046;5.184;2023-06-10T11:39:09;7.63;;;7.07;;
15202;SDS011;7702;51.046;5.184;2023-06-10T11:41:35;8.05;;;7.30;;
15202;SDS011;7702;51.046;5.184;2023-06-10T11:44:04;7.95;;;7.35;;
15202;SDS011;7702;51.046;5.184;2023-06-10T11:46:34;7.88;;;7.15;;
15202;SDS011;7702;51.046;5.184;2023-06-10T11:49:00;7.45;;;6.82;;
15202;SDS011;7702;51.046;5.184;2023-06-10T11:51:28;7.88;;;7.07;;
15202;SDS011;7702;51.046;5.184;2023-06-10T11:53:55;7.30;;;6.70;;
15202;SDS011;7702;51.046;5.184;2023-06-10T11:56:24;7.88;;;7.28;;
15202;SDS011;7702;51.046;5.184;2023-06-10T11:58:52;6.85;;;6.43;;
15202;SDS011;7702;51.046;5.184;2023-06-10T12:01:22;9.45;;;8.02;;
15202;SDS011;7702;51.046;5.184;2023-06-10T12:04:24;7.95;;;7.30;;
15202;SDS011;7702;51.046;5.184;2023-06-10T12:09:18;7.95;;;6.97;;
15202;SDS011;7702;51.046;5.184;2023-06-10T12:11:51;7.78;;;7.22;;
15202;SDS011;7702;51.046;5.184;2023-06-10T12:19:57;8.35;;;7.40;;
15202;SDS011;7702;51.046;5.184;2023-06-10T12:22:23;7.40;;;6.70;;
15202;SDS011;7702;51.046;5.184;2023-06-10T12:25:00;8.20;;;7.70;;
15202;SDS011;7702;51.046;5.184;2023-06-10T12:27:30;7.57;;;7.07;;
15202;SDS011;7702;51.046;5.184;2023-06-10T12:29:56;7.95;;;7.22;;
15202;SDS011;7702;51.046;5.184;2023-06-10T12:32:39;7.95;;;7.28;;
15202;SDS011;7702;51.046;5.184;2023-06-10T12:35:09;8.40;;;7.65;;
15202;SDS011;7702;51.046;5.184;2023-06-10T12:37:37;7.35;;;6.75;;
15202;SDS011;7702;51.046;5.184;2023-06-10T12:40:04;7.95;;;7.28;;
15202;SDS011;7702;51.046;5.184;2023-06-10T12:42:31;7.88;;;7.20;;
15202;SDS011;7702;51.046;5.184;2023-06-10T12:45:00;9.07;;;8.38;;
15202;SDS011;7702;51.046;5.184;2023-06-10T12:47:34;7.95;;;7.38;;
15202;SDS011;7702;51.046;5.184;2023-06-10T12:50:02;7.03;;;6.43;;
15202;SDS011;7702;51.046;5.184;2023-06-10T12:52:29;6.97;;;6.40;;
15202;SDS011;7702;51.046;5.184;2023-06-10T12:54:54;7.50;;;6.78;;
15202;SDS011;7702;51.046;5.184;2023-06-10T12:57:21;7.50;;;6.90;;
15202;SDS011;7702;51.046;5.184;2023-06-10T12:59:47;7.68;;;7.07;;
15202;SDS011;7702;51.046;5.184;2023-06-10T13:02:17;6.93;;;6.43;;
15202;SDS011;7702;51.046;5.184;2023-06-10T13:04:48;8.82;;;6.60;;
15202;SDS011;7702;51.046;5.184;2023-06-10T13:07:15;7.85;;;7.15;;
15202;SDS011;7702;51.046;5.184;2023-06-10T13:09:41;7.63;;;7.07;;
15202;SDS011;7702;51.046;5.184;2023-06-10T13:12:07;7.40;;;6.80;;
15202;SDS011;7702;51.046;5.184;2023-06-10T13:14:33;7.95;;;7.25;;
15202;SDS011;7702;51.046;5.184;2023-06-10T13:16:59;7.60;;;6.97;;
15202;SDS011;7702;51.046;5.184;2023-06-10T13:19:25;7.45;;;6.95;;
15202;SDS011;7702;51.046;5.184;2023-06-10T13:21:51;7.70;;;7.10;;
15202;SDS011;7702;51.046;5.184;2023-06-10T13:24:17;7.32;;;6.72;;
15202;SDS011;7702;51.046;5.184;2023-06-10T13:26:42;7.68;;;7.07;;
15202;SDS011;7702;51.046;5.184;2023-06-10T13:29:08;7.05;;;6.55;;
15202;SDS011;7702;51.046;5.184;2023-06-10T13:31:39;7.50;;;6.90;;
15202;SDS011;7702;51.046;5.184;2023-06-10T13:34:05;7.35;;;6.75;;
15202;SDS011;7702;51.046;5.184;2023-06-10T13:36:31;7.53;;;6.93;;
15202;SDS011;7702;51.046;5.184;2023-06-10T13:38:58;7.78;;;6.75;;
15202;SDS011;7702;51.046;5.184;2023-06-10T13:41:23;7.15;;;6.55;;
15202;SDS011;7702;51.046;5.184;2023-06-10T13:43:50;7.40;;;6.85;;
15202;SDS011;7702;51.046;5.184;2023-06-10T13:46:15;7.35;;;6.53;;
15202;SDS011;7702;51.046;5.184;2023-06-10T13:48:41;6.72;;;6.15;;
15202;SDS011;7702;51.046;5.184;2023-06-10T13:51:07;7.38;;;6.57;;
15202;SDS011;7702;51.046;5.184;2023-06-10T13:53:34;8.18;;;7.40;;
15202;SDS011;7702;51.046;5.184;2023-06-10T13:56:00;7.95;;;7.20;;
15202;SDS011;7702;51.046;5.184;2023-06-10T13:58:25;7.57;;;6.97;;
15202;SDS011;7702;51.046;5.184;2023-06-10T14:00:51;7.50;;;7.00;;
15202;SDS011;7702;51.046;5.184;2023-06-10T14:03:17;8.80;;;7.93;;
15202;SDS011;7702;51.046;5.184;2023-06-10T14:05:43;7.38;;;6.78;;
15202;SDS011;7702;51.046;5.184;2023-06-10T14:08:08;10.80;;;7.60;;
15202;SDS011;7702;51.046;5.184;2023-06-10T14:10:34;6.78;;;6.28;;
15202;SDS011;7702;51.046;5.184;2023-06-10T14:13:00;7.15;;;6.55;;
15202;SDS011;7702;51.046;5.184;2023-06-10T14:15:25;7.13;;;6.45;;
15202;SDS011;7702;51.046;5.184;2023-06-10T14:17:52;7.50;;;6.85;;
15202;SDS011;7702;51.046;5.184;2023-06-10T14:20:17;7.80;;;7.00;;
15202;SDS011;7702;51.046;5.184;2023-06-10T14:22:43;7.32;;;6.93;;
15202;SDS011;7702;51.046;5.184;2023-06-10T14:25:08;7.43;;;6.82;;
15202;SDS011;7702;51.046;5.184;2023-06-10T14:27:36;7.03;;;6.40;;
15202;SDS011;7702;51.046;5.184;2023-06-10T14:30:01;7.45;;;6.78;;
15202;SDS011;7702;51.046;5.184;2023-06-10T14:32:28;7.75;;;7.00;;
15202;SDS011;7702;51.046;5.184;2023-06-10T14:34:53;6.82;;;6.32;;
15202;SDS011;7702;51.046;5.184;2023-06-10T14:37:19;7.30;;;6.63;;
15202;SDS011;7702;51.046;5.184;2023-06-10T14:39:44;7.63;;;7.03;;
15202;SDS011;7702;51.046;5.184;2023-06-10T14:42:10;7.68;;;6.97;;
15202;SDS011;7702;51.046;5.184;2023-06-10T14:44:36;7.30;;;6.60;;
15202;SDS011;7702;51.046;5.184;2023-06-10T14:47:02;7.15;;;6.53;;
15202;SDS011;7702;51.046;5.184;2023-06-10T14:49:27;7.95;;;7.38;;
15202;SDS011;7702;51.046;5.184;2023-06-10T14:51:53;9.23;;;6.63;;
15202;SDS011;7702;51.046;5.184;2023-06-10T14:54:19;6.75;;;6.25;;
15202;SDS011;7702;51.046;5.184;2023-06-10T14:56:44;7.00;;;6.50;;
15202;SDS011;7702;51.046;5.184;2023-06-10T14:59:10;7.78;;;7.00;;
15202;SDS011;7702;51.046;5.184;2023-06-10T15:01:36;7.18;;;6.68;;
15202;SDS011;7702;51.046;5.184;2023-06-10T15:04:02;7.97;;;7.18;;
15202;SDS011;7702;51.046;5.184;2023-06-10T15:06:27;8.20;;;7.50;;
15202;SDS011;7702;51.046;5.184;2023-06-10T15:08:53;8.05;;;7.10;;
15202;SDS011;7702;51.046;5.184;2023-06-10T15:11:19;7.22;;;6.72;;
15202;SDS011;7702;51.046;5.184;2023-06-10T15:13:45;7.40;;;6.90;;
15202;SDS011;7702;51.046;5.184;2023-06-10T15:16:10;8.02;;;7.35;;
15202;SDS011;7702;51.046;5.184;2023-06-10T15:18:36;8.07;;;7.47;;
15202;SDS011;7702;51.046;5.184;2023-06-10T15:21:02;8.02;;;7.35;;
15202;SDS011;7702;51.046;5.184;2023-06-10T15:23:28;7.47;;;7.03;;